Time;durP1;ratioP1;P1;durP2;ratioP2;P2;SDS_P1;SDS_P2;PMS_P1;PMS_P2;Temp;Humidity;BMP_temperature;BMP_pressure;BME280_temperature;BME280_humidity;BME280_pressure;Samples;Min_cycle;Max_cycle;Signal;HPM_P1;HPM_P2
2022/11/17 00:01:55;;;;;;;2.30;1.20;;;13.40;43.80;;;;;;5051207;28;20176;-77
2022/11/17 00:04:20;;;;;;;2.30;1.30;;;13.40;42.50;;;;;;5050006;28;20638;-77
2022/11/17 00:06:46;;;;;;;2.20;1.10;;;13.40;42.60;;;;;;5047081;28;20202;-74
2022/11/17 00:09:16;;;;;;;2.27;1.10;;;13.30;41.50;;;;;;5048772;28;20237;-74
2022/11/17 00:14:31;;;;;;;3.07;1.53;;;13.40;43.10;;;;;;5048516;28;20446;-79
2022/11/17 00:16:58;;;;;;;2.30;1.00;;;13.10;44.90;;;;;;5046500;28;20454;-73
2022/11/17 00:22:07;;;;;;;2.80;1.30;;;13.60;43.90;;;;;;5048485;28;20436;-75
2022/11/17 00:24:33;;;;;;;2.80;1.50;;;13.40;42.30;;;;;;5049433;28;20860;-73
2022/11/17 00:27:01;;;;;;;2.60;1.30;;;12.90;43.80;;;;;;5046841;28;20203;-74
2022/11/17 00:29:28;;;;;;;2.80;1.60;;;12.10;45.30;;;;;;5048469;28;20180;-75
2022/11/17 00:34:38;;;;;;;2.70;1.30;;;12.20;45.00;;;;;;5041677;28;20442;-76
2022/11/17 00:37:04;;;;;;;2.70;1.50;;;11.70;46.90;;;;;;5043306;28;20455;-74
2022/11/17 00:39:30;;;;;;;2.60;1.30;;;11.40;47.90;;;;;;5046989;28;20558;-74
2022/11/17 00:41:57;;;;;;;4.17;1.80;;;11.30;48.00;;;;;;5050251;28;20426;-74
2022/11/17 00:44:23;;;;;;;2.60;1.33;;;11.00;49.50;;;;;;5050869;28;20414;-74
2022/11/17 00:46:48;;;;;;;2.77;1.53;;;11.70;49.10;;;;;;5046808;28;20446;-74
2022/11/17 00:49:14;;;;;;;2.90;1.60;;;11.40;48.40;;;;;;5050785;28;20422;-74
2022/11/17 00:51:40;;;;;;;2.50;1.33;;;11.80;48.40;;;;;;5050663;28;20172;-75
2022/11/17 00:54:09;;;;;;;2.40;1.30;;;12.20;47.20;;;;;;5050784;28;20945;-74
2022/11/17 00:56:35;;;;;;;2.30;1.20;;;12.40;47.20;;;;;;5046870;28;20481;-74
2022/11/17 00:59:01;;;;;;;2.23;1.10;;;12.90;47.50;;;;;;5040708;28;20905;-74
2022/11/17 01:01:27;;;;;;;2.30;1.10;;;12.80;45.80;;;;;;5054057;28;20172;-74
2022/11/17 01:04:01;;;;;;;2.50;1.30;;;13.10;43.80;;;;;;5044847;28;20277;-74
2022/11/17 01:06:43;;;;;;;2.30;1.10;;;13.20;43.70;;;;;;5051907;28;20844;-77
2022/11/17 01:09:21;;;;;;;2.30;1.10;;;13.10;43.60;;;;;;5051173;28;20425;-75
2022/11/17 01:11:48;;;;;;;2.50;1.20;;;13.00;44.50;;;;;;5052799;28;20909;-79
2022/11/17 01:14:17;;;;;;;2.90;1.30;;;13.50;43.50;;;;;;5052318;28;20456;-74
2022/11/17 01:16:43;;;;;;;2.50;1.10;;;14.10;44.40;;;;;;5053979;28;20422;-76
2022/11/17 01:19:11;;;;;;;3.03;1.30;;;14.10;42.80;;;;;;5042241;28;20430;-75
2022/11/17 01:21:36;;;;;;;2.63;1.30;;;13.50;42.90;;;;;;5047373;28;20512;-77
2022/11/17 01:24:02;;;;;;;2.57;1.10;;;13.10;43.70;;;;;;5052964;28;20485;-74
2022/11/17 01:26:32;;;;;;;2.60;1.10;;;13.00;44.40;;;;;;5054428;28;20199;-74
2022/11/17 01:28:59;;;;;;;2.80;1.23;;;13.30;42.70;;;;;;5051816;28;20184;-77
2022/11/17 01:31:32;;;;;;;2.80;1.30;;;13.30;44.20;;;;;;5050962;28;20857;-74
2022/11/17 01:33:58;;;;;;;2.60;1.10;;;12.90;44.20;;;;;;5051878;28;20464;-74
2022/11/17 01:36:29;;;;;;;4.50;1.70;;;13.10;45.40;;;;;;5052217;28;20450;-74
2022/11/17 01:38:55;;;;;;;2.80;1.30;;;12.80;44.80;;;;;;5049838;28;20462;-74
2022/11/17 01:41:25;;;;;;;3.10;1.40;;;12.70;45.20;;;;;;5045937;28;20467;-74
2022/11/17 01:44:18;;;;;;;2.77;1.20;;;13.00;44.30;;;;;;5053765;28;20210;-74
2022/11/17 01:46:43;;;;;;;3.00;1.30;;;13.00;43.70;;;;;;5053700;28;20971;-74
2022/11/17 01:49:21;;;;;;;2.70;1.10;;;13.00;44.90;;;;;;5052483;28;20414;-76
2022/11/17 01:51:51;;;;;;;2.70;1.17;;;12.80;44.70;;;;;;5043017;28;20199;-77
2022/11/17 01:54:21;;;;;;;2.70;1.10;;;12.70;44.90;;;;;;5045801;28;20464;-77
2022/11/17 01:56:50;;;;;;;2.67;1.10;;;12.70;45.20;;;;;;5053520;28;20431;-74
2022/11/17 01:59:25;;;;;;;2.80;1.30;;;12.90;44.40;;;;;;5051657;28;20433;-74
2022/11/17 02:01:56;;;;;;;2.70;1.10;;;13.20;43.60;;;;;;5045244;28;20423;-74
2022/11/17 02:05:07;;;;;;;2.80;1.20;;;13.70;42.80;;;;;;5052234;28;20468;-75
2022/11/17 02:07:39;;;;;;;2.70;1.13;;;13.00;43.10;;;;;;5053456;28;20438;-74
2022/11/17 02:10:05;;;;;;;2.80;1.20;;;12.80;44.30;;;;;;5051308;28;20523;-75
2022/11/17 02:12:32;;;;;;;2.73;1.10;;;12.60;45.00;;;;;;5037317;28;20465;-74
2022/11/17 02:15:00;;;;;;;2.80;1.20;;;12.70;44.40;;;;;;5053433;28;20410;-75
2022/11/17 02:17:33;;;;;;;2.80;1.17;;;12.60;44.50;;;;;;5053567;28;20426;-74
2022/11/17 02:20:10;;;;;;;3.10;1.50;;;12.50;45.00;;;;;;5053364;28;20399;-74
2022/11/17 02:22:47;;;;;;;2.80;1.20;;;12.40;45.00;;;;;;5047619;28;20851;-75
2022/11/17 02:25:30;;;;;;;2.90;1.20;;;12.50;45.20;;;;;;5051248;28;20534;-81
2022/11/17 02:28:19;;;;;;;3.50;1.73;;;12.30;45.70;;;;;;5041766;28;20605;-75
2022/11/17 02:30:55;;;;;;;2.73;1.10;;;12.70;43.70;;;;;;5045544;28;20410;-74
2022/11/17 02:33:24;;;;;;;2.73;1.10;;;13.40;42.80;;;;;;5048677;28;20999;-75
2022/11/17 02:36:19;;;;;;;2.87;1.20;;;13.30;41.50;;;;;;5053523;28;20413;-74
2022/11/17 02:38:50;;;;;;;2.90;1.30;;;13.10;41.50;;;;;;5053658;28;20506;-78
2022/11/17 02:41:29;;;;;;;2.73;1.10;;;13.30;40.80;;;;;;5053224;28;20406;-74
2022/11/17 02:44:38;;;;;;;3.00;1.27;;;13.60;40.60;;;;;;5045591;28;20533;-77
2022/11/17 02:47:20;;;;;;;2.80;1.00;;;13.50;40.00;;;;;;5000446;28;20448;-74
2022/11/17 02:49:52;;;;;;;3.00;1.33;;;14.80;42.20;;;;;;5032071;28;20548;-74
2022/11/17 02:52:19;;;;;;;4.40;1.67;;;13.20;42.30;;;;;;5017858;28;20469;-74
2022/11/17 02:54:44;;;;;;;2.90;1.20;;;13.10;41.30;;;;;;5004844;28;20490;-74
2022/11/17 02:57:30;;;;;;;2.90;1.20;;;13.40;40.70;;;;;;5013455;28;20441;-74
2022/11/17 02:59:59;;;;;;;2.90;1.30;;;13.20;41.10;;;;;;4987212;28;20233;-74
2022/11/17 03:02:33;;;;;;;2.90;1.17;;;13.80;41.10;;;;;;5021194;28;20411;-74
2022/11/17 03:05:03;;;;;;;3.10;1.33;;;13.70;39.40;;;;;;5009069;28;20443;-77
2022/11/17 03:07:43;;;;;;;2.90;1.10;;;13.80;40.00;;;;;;5018225;28;20444;-77
2022/11/17 03:10:41;;;;;;;3.10;1.30;;;13.40;39.80;;;;;;5010414;28;20551;-77
2022/11/17 03:13:42;;;;;;;3.10;1.23;;;13.20;40.40;;;;;;5002269;28;20466;-74
2022/11/17 03:16:11;;;;;;;2.90;1.10;;;13.70;39.70;;;;;;5011284;28;20851;-74
2022/11/17 03:18:52;;;;;;;4.03;1.70;;;13.70;40.10;;;;;;5048421;28;20468;-74
2022/11/17 03:21:29;;;;;;;3.10;1.30;;;13.70;42.00;;;;;;5043428;28;20442;-74
2022/11/17 03:24:03;;;;;;;3.10;1.40;;;13.90;42.50;;;;;;5051968;28;20971;-78
2022/11/17 03:26:43;;;;;;;3.00;1.30;;;13.90;43.00;;;;;;5045104;28;20473;-74
2022/11/17 03:29:13;;;;;;;2.90;1.10;;;14.00;44.90;;;;;;5052235;28;20418;-74
2022/11/17 03:31:41;;;;;;;2.83;1.20;;;14.00;45.60;;;;;;5051817;28;20406;-74
2022/11/17 03:34:12;;;;;;;3.07;1.30;;;13.50;45.70;;;;;;5050928;28;21004;-74
2022/11/17 03:36:42;;;;;;;3.13;1.40;;;13.40;47.60;;;;;;5047579;28;20458;-74
2022/11/17 03:39:15;;;;;;;2.80;1.20;;;13.30;46.30;;;;;;5051932;28;20929;-73
2022/11/17 03:41:44;;;;;;;3.00;1.30;;;13.50;46.80;;;;;;5049382;28;20430;-74
2022/11/17 03:44:12;;;;;;;2.83;1.10;;;13.90;46.10;;;;;;5052034;28;20978;-77
2022/11/17 03:46:40;;;;;;;2.80;1.20;;;13.40;47.70;;;;;;5043195;28;21032;-77
2022/11/17 03:49:40;;;;;;;2.90;1.30;;;13.20;48.00;;;;;;5045821;28;20528;-74
2022/11/17 03:52:06;;;;;;;2.80;1.10;;;13.00;49.80;;;;;;5051672;28;20956;-74
2022/11/17 03:54:32;;;;;;;2.80;1.20;;;13.30;50.40;;;;;;5049659;28;20450;-74
2022/11/17 03:57:44;;;;;;;2.80;1.20;;;13.50;49.10;;;;;;5034619;28;20274;-81
2022/11/17 04:00:12;;;;;;;2.80;1.20;;;13.60;49.50;;;;;;5041970;28;20942;-74
2022/11/17 04:02:43;;;;;;;3.03;1.30;;;13.80;45.90;;;;;;5051392;28;20933;-74
2022/11/17 04:05:09;;;;;;;2.80;1.20;;;13.90;47.00;;;;;;5051594;28;20409;-74
2022/11/17 04:07:46;;;;;;;3.20;1.50;;;13.80;47.50;;;;;;5048096;28;20450;-76
2022/11/17 04:10:24;;;;;;;3.60;1.77;;;13.60;47.80;;;;;;5049496;28;20425;-74
2022/11/17 04:15:55;;;;;;;2.83;1.30;;;13.60;47.00;;;;;;5049476;28;20446;-74
2022/11/17 04:18:21;;;;;;;2.80;1.30;;;13.40;49.20;;;;;;5048206;28;20520;-74
2022/11/17 04:20:52;;;;;;;3.30;1.47;;;13.90;49.50;;;;;;5051240;28;20410;-78
2022/11/17 04:23:18;;;;;;;11.40;1.57;;;13.70;48.90;;;;;;5051296;28;20519;-76
2022/11/17 04:28:35;;;;;;;7.27;1.50;;;13.40;50.60;;;;;;5037285;28;20705;-77
2022/11/17 04:31:13;;;;;;;2.67;1.10;;;13.40;49.30;;;;;;5049586;28;20446;-77
2022/11/17 04:33:47;;;;;;;2.80;1.20;;;13.30;50.40;;;;;;5035040;28;20866;-74
2022/11/17 04:36:15;;;;;;;2.70;1.20;;;13.60;50.90;;;;;;5052549;28;20460;-78
2022/11/17 04:38:43;;;;;;;2.70;1.20;;;13.70;48.70;;;;;;5048617;28;20968;-74
2022/11/17 04:43:55;;;;;;;2.90;1.40;;;13.80;47.60;;;;;;5038976;28;20594;-74
2022/11/17 04:46:22;;;;;;;2.70;1.20;;;14.00;47.30;;;;;;5051423;28;20872;-74
2022/11/17 04:48:48;;;;;;;2.60;1.10;;;13.70;47.90;;;;;;5055044;28;20407;-76
2022/11/17 04:51:15;;;;;;;2.63;1.07;;;14.10;47.00;;;;;;5054887;28;20407;-76
2022/11/17 04:53:42;;;;;;;2.80;1.20;;;13.70;48.60;;;;;;5053837;28;20535;-74
2022/11/17 04:56:08;;;;;;;2.93;1.30;;;13.60;48.60;;;;;;5043356;28;20453;-74
2022/11/17 04:58:33;;;;;;;2.70;1.10;;;13.40;49.70;;;;;;5047658;28;20976;-74
2022/11/17 05:01:11;;;;;;;2.80;1.17;;;13.50;47.60;;;;;;5054793;28;20410;-74
2022/11/17 05:03:51;;;;;;;2.67;1.10;;;13.90;46.10;;;;;;5054777;28;20160;-75
2022/11/17 05:06:37;;;;;;;2.87;1.27;;;14.00;45.50;;;;;;5052270;28;20998;-76
2022/11/17 05:09:11;;;;;;;2.70;1.10;;;14.30;45.00;;;;;;5047881;28;20503;-76
2022/11/17 05:14:23;;;;;;;2.80;1.20;;;14.80;44.70;;;;;;5054505;28;20944;-74
2022/11/17 05:17:04;;;;;;;2.70;1.10;;;14.30;45.10;;;;;;5051783;28;20503;-79
2022/11/17 05:19:43;;;;;;;2.73;1.13;;;13.90;46.50;;;;;;5046582;28;20795;-74
2022/11/17 05:24:54;;;;;;;2.73;1.20;;;14.00;47.70;;;;;;5054917;28;20448;-74
2022/11/17 05:27:21;;;;;;;2.77;1.10;;;13.90;47.40;;;;;;5049427;28;20445;-74
2022/11/17 05:29:47;;;;;;;2.80;1.10;;;14.00;46.00;;;;;;5050626;28;20944;-77
2022/11/17 05:32:12;;;;;;;2.80;1.10;;;14.30;44.70;;;;;;5054353;28;20403;-74
2022/11/17 05:34:38;;;;;;;3.30;1.30;;;14.30;45.80;;;;;;5054193;28;20227;-74
2022/11/17 05:37:04;;;;;;;2.90;1.20;;;13.60;46.80;;;;;;5048346;28;20192;-74
2022/11/17 05:39:29;;;;;;;2.97;1.20;;;13.50;48.20;;;;;;5048875;28;20199;-75
2022/11/17 05:41:55;;;;;;;3.00;1.20;;;13.80;46.40;;;;;;5048344;28;20206;-76
2022/11/17 05:44:20;;;;;;;2.80;1.10;;;14.30;44.40;;;;;;5041134;28;20192;-74
2022/11/17 05:46:46;;;;;;;2.90;1.20;;;14.50;43.10;;;;;;5052341;28;20702;-74
2022/11/17 05:49:11;;;;;;;2.87;1.10;;;14.40;43.70;;;;;;5048917;28;20211;-74
2022/11/17 05:51:37;;;;;;;2.93;1.20;;;14.60;44.60;;;;;;5047538;28;20651;-77
2022/11/17 05:54:03;;;;;;;2.90;1.20;;;14.10;45.60;;;;;;5049641;28;20196;-75
2022/11/17 05:56:40;;;;;;;3.43;1.37;;;13.60;46.60;;;;;;5046493;28;20601;-74
2022/11/17 05:59:08;;;;;;;2.83;1.13;;;13.40;47.30;;;;;;5050550;28;20427;-76
2022/11/17 06:01:37;;;;;;;3.00;1.27;;;13.60;47.60;;;;;;5044845;28;20426;-74
2022/11/17 06:04:06;;;;;;;2.90;1.10;;;13.90;47.20;;;;;;5034522;28;20439;-75
2022/11/17 06:06:34;;;;;;;2.80;1.13;;;14.00;45.60;;;;;;5041737;28;20542;-77
2022/11/17 06:09:00;;;;;;;2.90;1.20;;;13.90;45.40;;;;;;5049691;28;20445;-77
2022/11/17 06:11:25;;;;;;;3.10;1.30;;;14.30;45.60;;;;;;5051970;28;20415;-74
2022/11/17 06:13:51;;;;;;;2.80;1.10;;;13.90;45.30;;;;;;5047271;28;20296;-74
2022/11/17 06:16:22;;;;;;;2.77;1.10;;;13.80;45.50;;;;;;5050616;28;20199;-74
2022/11/17 06:18:55;;;;;;;3.20;1.43;;;14.20;44.00;;;;;;5052328;28;20648;-77
2022/11/17 06:21:21;;;;;;;2.73;1.10;;;14.40;43.10;;;;;;5052161;28;20564;-74
2022/11/17 06:23:48;;;;;;;2.73;1.10;;;14.80;44.50;;;;;;5052505;28;20937;-74
2022/11/17 06:26:14;;;;;;;2.80;1.20;;;14.40;44.70;;;;;;5039867;28;20402;-74
2022/11/17 06:28:44;;;;;;;2.80;1.13;;;14.20;44.20;;;;;;5046733;28;20415;-74
2022/11/17 06:31:10;;;;;;;2.77;1.10;;;14.10;43.60;;;;;;5053047;28;20406;-78
2022/11/17 06:33:37;;;;;;;2.80;1.10;;;14.20;44.00;;;;;;5053032;28;20871;-74
2022/11/17 06:36:05;;;;;;;2.80;1.10;;;14.10;43.80;;;;;;5053157;28;20454;-76
2022/11/17 06:38:33;;;;;;;2.80;1.10;;;14.30;42.20;;;;;;5042691;28;20529;-74
2022/11/17 06:40:58;;;;;;;2.87;1.10;;;14.50;42.10;;;;;;5051039;28;21010;-77
2022/11/17 06:43:24;;;;;;;2.90;1.10;;;14.70;41.10;;;;;;5052561;28;20519;-74
2022/11/17 06:45:50;;;;;;;3.00;1.20;;;14.50;39.70;;;;;;5043886;28;20199;-74
2022/11/17 06:48:17;;;;;;;2.90;1.10;;;14.70;39.00;;;;;;5043375;28;20188;-74
2022/11/17 06:50:43;;;;;;;2.93;1.10;;;14.50;39.50;;;;;;5052388;28;20168;-79
2022/11/17 06:53:10;;;;;;;2.97;1.10;;;14.80;38.90;;;;;;5045300;28;20461;-77
2022/11/17 06:55:36;;;;;;;3.00;1.13;;;14.90;37.90;;;;;;5046724;28;20489;-74
2022/11/17 06:58:07;;;;;;;2.97;1.10;;;15.00;37.00;;;;;;5047214;28;20509;-74
2022/11/17 07:00:35;;;;;;;3.00;1.20;;;14.90;37.50;;;;;;5052600;28;20820;-74
2022/11/17 07:03:08;;;;;;;3.00;1.10;;;15.20;37.20;;;;;;5047004;28;20440;-74
2022/11/17 07:05:36;;;;;;;2.90;1.10;;;15.40;36.60;;;;;;5045423;28;20418;-74
2022/11/17 07:08:04;;;;;;;3.03;1.13;;;15.40;36.20;;;;;;5044954;28;20547;-75
2022/11/17 07:10:31;;;;;;;3.00;1.10;;;15.30;36.70;;;;;;5045314;28;20439;-76
2022/11/17 07:12:57;;;;;;;3.00;1.20;;;15.20;37.20;;;;;;5055061;28;20475;-76
2022/11/17 07:15:23;;;;;;;2.90;1.10;;;15.50;36.40;;;;;;5049136;28;20718;-76
2022/11/17 07:17:48;;;;;;;3.03;1.20;;;15.60;35.40;;;;;;5053107;28;20205;-76
2022/11/17 07:20:15;;;;;;;2.97;1.10;;;15.40;37.40;;;;;;5045426;28;20193;-76
2022/11/17 07:22:41;;;;;;;2.93;1.10;;;15.50;36.40;;;;;;5052109;28;20184;-77
2022/11/17 07:25:08;;;;;;;3.10;1.20;;;15.70;36.40;;;;;;5049695;28;20437;-77
2022/11/17 07:27:33;;;;;;;3.00;1.20;;;15.60;37.60;;;;;;5042440;28;20470;-78
2022/11/17 07:29:59;;;;;;;3.00;1.10;;;15.60;37.20;;;;;;5058893;28;20434;-84
2022/11/17 07:32:25;;;;;;;2.97;1.10;;;15.30;37.30;;;;;;5055345;28;20198;-84
2022/11/17 07:34:50;;;;;;;3.00;1.20;;;14.60;38.70;;;;;;5054798;28;20171;-84
2022/11/17 07:37:16;;;;;;;3.00;1.13;;;14.40;40.10;;;;;;5048375;28;20457;-80
2022/11/17 07:39:42;;;;;;;2.97;1.10;;;14.10;40.60;;;;;;5050642;28;20206;-78
2022/11/17 07:42:07;;;;;;;3.00;1.20;;;13.90;42.30;;;;;;5051806;28;20199;-78
2022/11/17 07:44:33;;;;;;;3.00;1.10;;;13.80;43.80;;;;;;5054212;28;20187;-78
2022/11/17 07:46:59;;;;;;;3.00;1.20;;;13.90;45.40;;;;;;5051051;28;20199;-78
2022/11/17 07:49:25;;;;;;;3.20;1.30;;;13.60;45.20;;;;;;5057406;28;20187;-78
2022/11/17 07:51:51;;;;;;;3.07;1.10;;;13.80;46.00;;;;;;5051114;28;20459;-77
2022/11/17 07:54:17;;;;;;;3.00;1.10;;;14.20;45.20;;;;;;5052235;28;21000;-77
2022/11/17 07:56:42;;;;;;;3.03;1.20;;;14.50;44.00;;;;;;5053017;28;20198;-77
2022/11/17 07:59:08;;;;;;;3.00;1.20;;;14.70;44.40;;;;;;5057096;28;20176;-79
2022/11/17 08:01:34;;;;;;;3.03;1.13;;;14.50;45.40;;;;;;5056677;28;20253;-78
2022/11/17 08:04:00;;;;;;;3.00;1.03;;;14.30;46.10;;;;;;5054613;28;20210;-78
2022/11/17 08:06:25;;;;;;;3.07;1.20;;;14.00;46.60;;;;;;5061837;28;20445;-78
2022/11/17 08:08:52;;;;;;;3.00;1.10;;;14.10;46.70;;;;;;5058605;28;20180;-78
2022/11/17 08:11:18;;;;;;;3.00;1.10;;;13.70;49.40;;;;;;5052642;28;20191;-78
2022/11/17 08:13:44;;;;;;;3.00;1.10;;;13.30;49.60;;;;;;5048371;28;20831;-77
2022/11/17 08:16:11;;;;;;;2.90;1.00;;;13.50;51.80;;;;;;5066615;28;20278;-78
2022/11/17 08:18:38;;;;;;;2.97;1.10;;;14.00;49.90;;;;;;5068509;28;20427;-78
2022/11/17 08:21:06;;;;;;;2.90;1.10;;;14.30;49.20;;;;;;5065223;28;20498;-78
2022/11/17 08:23:33;;;;;;;3.23;1.40;;;14.30;48.50;;;;;;5065355;28;20435;-78
2022/11/17 08:25:59;;;;;;;2.90;1.10;;;14.00;50.50;;;;;;5059228;28;20454;-78
2022/11/17 08:28:25;;;;;;;3.00;1.20;;;13.80;51.50;;;;;;5060624;28;20442;-78
2022/11/17 08:30:51;;;;;;;2.90;1.20;;;13.50;53.10;;;;;;5064516;28;20434;-78
2022/11/17 08:33:16;;;;;;;3.00;1.20;;;13.90;54.00;;;;;;5063140;28;20264;-78
2022/11/17 08:35:42;;;;;;;2.93;1.20;;;14.00;53.30;;;;;;5062300;28;20208;-77
2022/11/17 08:38:10;;;;;;;2.90;1.10;;;13.20;54.10;;;;;;5060112;28;20211;-77
2022/11/17 08:40:36;;;;;;;2.90;1.10;;;13.20;54.40;;;;;;5057763;28;20173;-77
2022/11/17 08:43:02;;;;;;;2.90;1.10;;;13.10;54.10;;;;;;5058286;28;20790;-77
2022/11/17 08:45:28;;;;;;;3.00;1.20;;;13.50;51.80;;;;;;5058677;28;20415;-76
2022/11/17 08:47:55;;;;;;;2.90;1.10;;;13.10;51.70;;;;;;5049468;28;20463;-77
2022/11/17 08:50:21;;;;;;;2.87;1.10;;;13.30;53.30;;;;;;5053016;28;20435;-76
2022/11/17 08:52:46;;;;;;;3.00;1.30;;;13.70;50.90;;;;;;5041117;28;20505;-77
2022/11/17 08:55:12;;;;;;;2.90;1.10;;;13.70;51.40;;;;;;5046161;28;20453;-76
2022/11/17 08:57:38;;;;;;;2.90;1.10;;;13.80;51.00;;;;;;5052700;28;20273;-76
2022/11/17 09:00:05;;;;;;;3.00;1.10;;;14.00;49.70;;;;;;5063444;28;20414;-76
2022/11/17 09:02:31;;;;;;;2.90;1.10;;;14.30;49.70;;;;;;5048002;28;20199;-75
2022/11/17 09:04:57;;;;;;;3.00;1.20;;;14.00;49.30;;;;;;5036407;28;20428;-75
2022/11/17 09:07:23;;;;;;;3.00;1.20;;;13.90;48.80;;;;;;5030603;28;20535;-76
2022/11/17 09:09:49;;;;;;;3.30;1.40;;;13.90;49.00;;;;;;5041257;28;20172;-76
2022/11/17 09:12:14;;;;;;;3.00;1.17;;;14.20;46.90;;;;;;5049043;28;20194;-75
2022/11/17 09:14:40;;;;;;;3.00;1.20;;;14.00;46.60;;;;;;5050660;28;20177;-75
2022/11/17 09:17:06;;;;;;;3.03;1.20;;;13.90;45.50;;;;;;5051022;28;20271;-77
2022/11/17 09:19:31;;;;;;;3.00;1.20;;;13.70;45.60;;;;;;5048046;28;20686;-78
2022/11/17 09:21:57;;;;;;;3.00;1.10;;;13.70;44.20;;;;;;5069665;28;20213;-78
2022/11/17 09:24:25;;;;;;;3.00;1.20;;;13.60;43.00;;;;;;5065863;28;20181;-78
2022/11/17 09:26:53;;;;;;;3.00;1.10;;;13.20;42.80;;;;;;5047788;28;20355;-77
2022/11/17 09:29:19;;;;;;;3.03;1.20;;;12.90;44.50;;;;;;5054940;28;20462;-78
2022/11/17 09:31:44;;;;;;;3.00;1.10;;;12.90;43.10;;;;;;5055769;28;20427;-79
2022/11/17 09:34:10;;;;;;;3.00;1.20;;;12.80;44.10;;;;;;5048260;28;20201;-79
2022/11/17 09:36:36;;;;;;;3.00;1.10;;;12.90;43.90;;;;;;5047080;28;20672;-77
2022/11/17 09:39:01;;;;;;;2.93;1.00;;;12.90;43.70;;;;;;5048190;28;20644;-75
2022/11/17 09:41:45;;;;;;;2.97;1.10;;;13.40;42.30;;;;;;5050904;28;20180;-76
2022/11/17 09:44:16;;;;;;;3.00;1.10;;;13.00;42.80;;;;;;5054551;28;20426;-76
2022/11/17 09:47:08;;;;;;;3.10;1.20;;;13.50;41.90;;;;;;5041042;28;20460;-76
2022/11/17 09:49:58;;;;;;;3.53;1.50;;;13.50;41.40;;;;;;5049030;28;20525;-76
2022/11/17 09:52:50;;;;;;;3.00;1.10;;;13.50;41.20;;;;;;5053915;28;20418;-76
2022/11/17 09:55:27;;;;;;;3.00;1.17;;;13.40;40.40;;;;;;5051811;28;20485;-76
2022/11/17 09:58:38;;;;;;;3.00;1.20;;;13.30;40.60;;;;;;5050455;28;20464;-76
2022/11/17 10:01:04;;;;;;;3.10;1.27;;;13.50;40.50;;;;;;5018411;28;20545;-77
2022/11/17 10:03:32;;;;;;;3.00;1.20;;;14.00;39.50;;;;;;5017529;28;20446;-77
2022/11/17 10:06:02;;;;;;;3.10;1.33;;;14.00;39.00;;;;;;5012352;28;20447;-77
2022/11/17 10:08:45;;;;;;;3.57;1.53;;;14.00;38.10;;;;;;5043895;28;20419;-79
2022/11/17 10:11:32;;;;;;;3.00;1.20;;;14.00;38.80;;;;;;5047088;28;20546;-78
2022/11/17 10:14:20;;;;;;;3.10;1.33;;;14.10;38.10;;;;;;5010135;28;20470;-77
2022/11/17 10:16:56;;;;;;;3.07;1.30;;;14.10;38.00;;;;;;5025175;28;20510;-75
2022/11/17 10:19:27;;;;;;;3.00;1.20;;;13.90;37.30;;;;;;5025598;28;20485;-77
2022/11/17 10:22:18;;;;;;;3.20;1.30;;;13.90;38.20;;;;;;5021899;28;21101;-76
2022/11/17 10:24:49;;;;;;;3.00;1.20;;;13.60;38.70;;;;;;5016703;28;20496;-77
2022/11/17 10:27:26;;;;;;;3.10;1.30;;;13.50;38.00;;;;;;5023451;28;20476;-77
2022/11/17 10:30:03;;;;;;;3.10;1.30;;;13.80;37.50;;;;;;5037499;28;20434;-77
2022/11/17 10:32:35;;;;;;;3.10;1.27;;;14.20;37.20;;;;;;5011340;28;20459;-78
2022/11/17 10:35:19;;;;;;;3.27;1.30;;;14.00;36.10;;;;;;5043088;28;20718;-76
2022/11/17 10:38:13;;;;;;;3.10;1.33;;;14.10;39.10;;;;;;5046866;28;20452;-77
2022/11/17 10:40:39;;;;;;;3.10;1.30;;;14.40;36.40;;;;;;5063721;28;20429;-76
2022/11/17 10:43:24;;;;;;;3.70;1.83;;;14.60;36.60;;;;;;5062130;28;20482;-76
2022/11/17 10:45:59;;;;;;;3.00;1.20;;;14.00;36.50;;;;;;5075176;28;20174;-77
2022/11/17 10:48:30;;;;;;;2.90;1.17;;;14.00;36.60;;;;;;5072080;28;20929;-76
2022/11/17 10:50:59;;;;;;;3.00;1.20;;;13.80;37.50;;;;;;5070494;28;20410;-77
2022/11/17 10:53:25;;;;;;;3.00;1.30;;;13.80;37.00;;;;;;5060817;28;20443;-75
2022/11/17 10:56:03;;;;;;;3.00;1.20;;;14.40;36.40;;;;;;5071962;28;20429;-76
2022/11/17 10:58:30;;;;;;;2.90;1.10;;;14.20;36.30;;;;;;5064178;28;20211;-75
2022/11/17 11:01:02;;;;;;;3.60;1.83;;;14.10;36.20;;;;;;5071058;28;20399;-76
2022/11/17 11:03:33;;;;;;;3.00;1.23;;;14.50;36.50;;;;;;5070685;28;20442;-76
2022/11/17 11:06:05;;;;;;;2.90;1.20;;;14.10;37.80;;;;;;5070116;28;20422;-76
2022/11/17 11:08:45;;;;;;;2.90;1.23;;;14.40;37.10;;;;;;5065366;28;20445;-76
2022/11/17 11:11:42;;;;;;;2.90;1.10;;;14.90;35.10;;;;;;5068519;28;20457;-77
2022/11/17 11:14:38;;;;;;;3.10;1.37;;;14.40;36.50;;;;;;5072678;28;20527;-76
2022/11/17 11:17:17;;;;;;;2.97;1.20;;;14.20;37.10;;;;;;5073828;28;20476;-77
2022/11/17 11:19:50;;;;;;;3.00;1.20;;;14.60;36.60;;;;;;5055945;28;20456;-77
2022/11/17 11:22:18;;;;;;;3.03;1.33;;;15.00;35.70;;;;;;5046443;28;20446;-77
2022/11/17 11:25:10;;;;;;;2.97;1.30;;;15.00;35.40;;;;;;5039979;28;20403;-77
2022/11/17 11:27:44;;;;;;;2.90;1.30;;;14.30;36.70;;;;;;5045874;28;20524;-77
2022/11/17 11:30:16;;;;;;;2.90;1.20;;;14.10;38.00;;;;;;5034234;28;20441;-77
2022/11/17 11:33:09;;;;;;;2.83;1.20;;;14.50;37.30;;;;;;5051401;28;20476;-77
2022/11/17 11:35:50;;;;;;;2.90;1.20;;;15.30;35.20;;;;;;5046390;28;20906;-77
2022/11/17 11:38:23;;;;;;;3.00;1.30;;;15.90;34.20;;;;;;5051743;28;20404;-77
2022/11/17 11:40:57;;;;;;;3.00;1.30;;;15.80;34.30;;;;;;5047470;28;20426;-77
2022/11/17 11:43:38;;;;;;;3.03;1.30;;;15.70;34.10;;;;;;5042310;28;20445;-77
2022/11/17 11:46:09;;;;;;;4.07;1.47;;;16.00;33.80;;;;;;5043520;28;20434;-77
2022/11/17 11:48:38;;;;;;;3.13;1.30;;;16.40;32.50;;;;;;5051478;28;20430;-77
2022/11/17 11:51:08;;;;;;;3.03;1.20;;;16.50;32.60;;;;;;5051552;28;20409;-77
2022/11/17 11:53:51;;;;;;;3.17;1.27;;;16.70;31.90;;;;;;5046493;28;20451;-76
2022/11/17 11:56:31;;;;;;;3.13;1.10;;;17.50;30.50;;;;;;5050340;28;20588;-77
2022/11/17 11:59:29;;;;;;;3.47;1.20;;;17.40;30.40;;;;;;5046723;28;20423;-76
2022/11/17 12:02:11;;;;;;;3.30;1.10;;;16.80;30.40;;;;;;5033449;28;20430;-76
2022/11/17 12:04:45;;;;;;;3.27;1.20;;;16.30;31.80;;;;;;5031692;28;20410;-77
2022/11/17 12:07:35;;;;;;;3.30;1.20;;;16.30;32.60;;;;;;5042217;28;20529;-76
2022/11/17 12:10:09;;;;;;;3.70;1.30;;;16.10;30.80;;;;;;5051372;28;20418;-77
2022/11/17 12:12:37;;;;;;;3.70;1.40;;;15.50;31.90;;;;;;5049558;28;20473;-77
2022/11/17 12:15:07;;;;;;;3.43;1.33;;;15.40;31.90;;;;;;5033564;28;20419;-76
2022/11/17 12:17:33;;;;;;;3.90;1.80;;;15.30;32.90;;;;;;5042995;28;20537;-77
2022/11/17 12:20:01;;;;;;;3.70;1.40;;;15.30;32.80;;;;;;5051328;28;20446;-78
2022/11/17 12:22:32;;;;;;;3.50;1.40;;;15.90;32.50;;;;;;5050632;28;20202;-77
2022/11/17 12:25:13;;;;;;;3.37;1.20;;;15.80;32.30;;;;;;5051488;28;20405;-76
2022/11/17 12:27:38;;;;;;;3.20;1.20;;;16.00;31.20;;;;;;5046114;28;20456;-77
2022/11/17 12:30:25;;;;;;;3.67;1.50;;;15.70;31.70;;;;;;5049594;28;20446;-76
2022/11/17 12:32:52;;;;;;;3.30;1.30;;;16.00;31.50;;;;;;5046905;28;20206;-76
2022/11/17 12:35:35;;;;;;;3.27;1.20;;;15.90;32.10;;;;;;5041480;28;20493;-76
2022/11/17 12:38:16;;;;;;;3.27;1.30;;;15.70;31.70;;;;;;5046458;28;20457;-76
2022/11/17 12:40:48;;;;;;;3.70;1.47;;;15.80;32.40;;;;;;5043787;28;20470;-77
2022/11/17 12:43:14;;;;;;;3.30;1.30;;;16.00;31.70;;;;;;5044820;28;20953;-77
2022/11/17 12:45:51;;;;;;;3.30;1.30;;;16.90;30.40;;;;;;5046881;28;20434;-77
2022/11/17 12:48:23;;;;;;;3.30;1.20;;;16.90;29.90;;;;;;5047700;28;20184;-77
2022/11/17 12:51:00;;;;;;;3.30;1.20;;;16.80;30.60;;;;;;5046441;28;20433;-77
2022/11/17 12:53:40;;;;;;;3.30;1.20;;;16.60;29.90;;;;;;5050484;28;20454;-76
2022/11/17 12:56:21;;;;;;;3.30;1.20;;;16.30;30.00;;;;;;5044577;28;20911;-77
2022/11/17 12:58:47;;;;;;;3.27;1.20;;;16.60;30.10;;;;;;5047200;28;20423;-77
2022/11/17 13:01:34;;;;;;;3.23;1.17;;;16.70;29.50;;;;;;5050434;28;20424;-77
2022/11/17 13:04:07;;;;;;;3.60;1.53;;;15.90;31.20;;;;;;5053778;28;20187;-77
2022/11/17 13:06:33;;;;;;;3.30;1.20;;;16.30;30.60;;;;;;5044303;28;20458;-77
2022/11/17 13:09:04;;;;;;;5.10;1.50;;;16.60;30.10;;;;;;5050818;28;20434;-77
2022/11/17 13:11:30;;;;;;;3.90;1.30;;;16.90;29.00;;;;;;5039994;28;20177;-77
2022/11/17 13:14:09;;;;;;;3.70;1.20;;;17.20;27.70;;;;;;5049336;28;20475;-77
2022/11/17 13:16:36;;;;;;;3.50;1.10;;;16.50;27.70;;;;;;5042607;28;20471;-77
2022/11/17 13:19:03;;;;;;;3.70;1.30;;;16.10;28.70;;;;;;5050933;28;20449;-78
2022/11/17 13:21:31;;;;;;;6.67;1.50;;;16.20;28.80;;;;;;5040259;28;20437;-78
2022/11/17 13:23:59;;;;;;;3.43;1.20;;;16.30;28.90;;;;;;5054611;28;20422;-77
2022/11/17 13:26:25;;;;;;;3.50;1.30;;;16.00;30.00;;;;;;5040766;28;20453;-76
2022/11/17 13:29:08;;;;;;;3.50;1.27;;;15.90;28.80;;;;;;5051477;28;20975;-76
2022/11/17 13:31:34;;;;;;;3.70;1.60;;;15.60;29.40;;;;;;5042696;28;20502;-77
2022/11/17 13:34:09;;;;;;;3.40;1.20;;;15.80;29.20;;;;;;5050177;28;20544;-76